Prospect, Connecticut
Current Conditions -  °F | °C
As of 1:53 AM on Sunday 26 Oct 2014 (Local Time) from KMMK Reporting Station
Overcast Overcast  
Wind Chill: 10°   Ceiling: 10000
Heat Index: 10°   Visibility: 8mi
Dew Point:   Wind: 0mph
Humidity: 89%   Direction: NA
Pressure: 29.52"   Gusts: NA
Location:  41.5°N, 72.98°W
Report Text: KMMK 260553Z AUTO 00000KT 8SM OVC100 10/08 A2952 RMK AO2 SLP997 T01000083 10128 20083 56013 TSNO
Loading
Personal Weather Stations






























Interactive Weather Map
Tropical Storm Tracking
New forecast layout! Learn more

10-Day Weather Forecast

Advertisements
Track Severe Weather on mobile